createdAt,value
2022-12-28T00:02:16.998Z,5.15
2022-12-28T00:04:49.303Z,5.20
2022-12-28T00:07:16.047Z,5.75
2022-12-28T00:09:42.695Z,5.32
2022-12-28T00:12:09.356Z,6.65
2022-12-28T00:14:36.300Z,5.78
2022-12-28T00:17:03.164Z,5.35
2022-12-28T00:19:29.847Z,5.32
2022-12-28T00:21:56.486Z,5.07
2022-12-28T00:24:26.367Z,5.10
2022-12-28T00:26:53.042Z,7.40
2022-12-28T00:29:20.054Z,6.65
2022-12-28T00:31:46.705Z,5.57
2022-12-28T00:34:13.427Z,4.93
2022-12-28T00:37:09.225Z,5.43
2022-12-28T00:39:26.790Z,5.22
2022-12-28T00:41:53.519Z,4.97
2022-12-28T00:44:20.217Z,4.97
2022-12-28T00:46:47.006Z,4.82
2022-12-28T00:49:13.688Z,3.95
2022-12-28T00:51:40.291Z,4.32
2022-12-28T00:54:06.971Z,4.05
2022-12-28T00:56:33.601Z,4.55
2022-12-28T00:59:00.299Z,3.55
2022-12-28T01:01:27.442Z,3.20
2022-12-28T01:03:56.830Z,4.25
2022-12-28T01:06:23.505Z,4.43
2022-12-28T01:08:50.163Z,3.65
2022-12-28T01:11:19.967Z,3.08
2022-12-28T01:13:46.771Z,3.95
2022-12-28T01:16:14.545Z,3.10
2022-12-28T01:18:41.255Z,3.40
2022-12-28T01:21:12.442Z,3.40
2022-12-28T01:23:39.121Z,3.67
2022-12-28T01:26:05.876Z,3.75
2022-12-28T01:28:32.497Z,2.67
2022-12-28T01:31:04.414Z,2.67
2022-12-28T01:33:31.076Z,2.42
2022-12-28T01:35:57.675Z,4.10
2022-12-28T01:38:24.386Z,3.28
2022-12-28T01:40:50.975Z,3.85
2022-12-28T01:43:29.518Z,3.42
2022-12-28T01:45:56.667Z,3.53
2022-12-28T01:48:23.648Z,3.40
2022-12-28T01:50:50.359Z,3.75
2022-12-28T01:53:23.161Z,3.10
2022-12-28T01:55:49.759Z,2.83
2022-12-28T01:58:25.259Z,2.50
2022-12-28T02:00:52.010Z,3.10
2022-12-28T02:03:21.859Z,2.85
2022-12-28T02:05:49.810Z,3.17
2022-12-28T02:08:44.698Z,3.70
2022-12-28T02:11:12.648Z,2.85
2022-12-28T02:13:39.713Z,2.65
2022-12-28T02:16:06.778Z,3.35
2022-12-28T02:18:33.523Z,3.55
2022-12-28T02:21:12.596Z,2.67
2022-12-28T02:24:08.704Z,2.70
2022-12-28T02:27:13.837Z,2.58
2022-12-28T02:30:15.432Z,2.90
2022-12-28T02:33:06.852Z,3.97
2022-12-28T02:35:47.849Z,3.40
2022-12-28T02:38:21.312Z,2.85
2022-12-28T02:40:51.394Z,3.10
2022-12-28T02:43:18.110Z,4.07
2022-12-28T02:46:06.069Z,4.40
2022-12-28T02:49:07.726Z,4.53
2022-12-28T02:52:14.209Z,4.88
2022-12-28T02:55:30.467Z,3.90
2022-12-28T03:01:09.698Z,4.25
2022-12-28T03:03:55.681Z,4.88
2022-12-28T03:07:03.692Z,5.35
2022-12-28T03:10:10.251Z,6.00
2022-12-28T03:12:40.775Z,5.43
2022-12-28T03:15:11.816Z,5.70
2022-12-28T03:17:59.051Z,5.95
2022-12-28T03:20:47.318Z,6.13
2022-12-28T03:23:35.659Z,5.63
2022-12-28T03:26:22.924Z,5.47
2022-12-28T03:29:09.936Z,3.97
2022-12-28T03:31:36.578Z,4.20
2022-12-28T03:34:10.267Z,4.10
2022-12-28T03:36:47.868Z,3.30
2022-12-28T03:42:17.975Z,3.75
2022-12-28T03:44:48.025Z,2.10
2022-12-28T03:47:14.629Z,1.80
2022-12-28T03:49:41.241Z,2.13
2022-12-28T03:52:08.070Z,2.50
2022-12-28T03:54:34.673Z,2.40
2022-12-28T03:57:01.335Z,2.30
2022-12-28T03:59:27.939Z,2.35
2022-12-28T04:01:54.570Z,1.98
2022-12-28T04:04:21.247Z,2.00
2022-12-28T04:06:47.898Z,1.67
2022-12-28T04:09:14.472Z,2.40
2022-12-28T04:11:41.104Z,2.08
2022-12-28T04:14:10.876Z,1.80
2022-12-28T04:16:37.646Z,1.92
2022-12-28T04:19:04.369Z,1.77
2022-12-28T04:21:31.192Z,2.15
2022-12-28T04:23:57.823Z,2.00
2022-12-28T04:26:24.550Z,1.90
2022-12-28T04:28:51.148Z,1.83
2022-12-28T04:31:17.944Z,1.75
2022-12-28T04:33:44.609Z,1.52
2022-12-28T04:36:13.260Z,1.73
2022-12-28T04:38:39.887Z,1.60
2022-12-28T04:41:07.094Z,1.80
2022-12-28T04:43:34.033Z,1.27
2022-12-28T04:46:02.954Z,1.30
2022-12-28T04:48:29.566Z,1.67
2022-12-28T04:50:56.314Z,1.73
2022-12-28T04:53:23.044Z,1.80
2022-12-28T04:55:49.694Z,1.70
2022-12-28T04:58:16.562Z,1.73
2022-12-28T05:00:43.280Z,1.80
2022-12-28T05:03:09.923Z,2.03
2022-12-28T05:05:38.042Z,1.92
2022-12-28T05:08:04.998Z,1.85
2022-12-28T05:10:31.611Z,1.65
2022-12-28T05:12:58.219Z,3.45
2022-12-28T05:15:24.861Z,1.73
2022-12-28T05:17:51.639Z,2.60
2022-12-28T05:20:20.413Z,2.28
2022-12-28T05:22:47.039Z,3.35
2022-12-28T05:25:13.642Z,2.88
2022-12-28T05:27:40.297Z,2.10
2022-12-28T05:30:07.723Z,2.30
2022-12-28T05:32:34.319Z,1.80
2022-12-28T05:35:00.943Z,1.80
2022-12-28T05:37:27.517Z,1.92
2022-12-28T05:39:54.090Z,1.38
2022-12-28T05:42:20.750Z,1.90
2022-12-28T05:44:47.351Z,1.45
2022-12-28T05:47:14.001Z,1.58
2022-12-28T05:49:40.587Z,2.88
2022-12-28T05:52:07.211Z,1.92
2022-12-28T05:54:33.828Z,2.30
2022-12-28T05:57:00.412Z,1.85
2022-12-28T05:59:27.083Z,2.05
2022-12-28T06:01:53.935Z,1.83
2022-12-28T06:04:21.245Z,2.05
2022-12-28T06:06:48.115Z,1.55
2022-12-28T06:09:14.807Z,1.67
2022-12-28T06:11:41.563Z,2.58
2022-12-28T06:14:08.239Z,2.03
2022-12-28T06:16:36.915Z,1.73
2022-12-28T06:19:05.754Z,1.70
2022-12-28T06:21:33.044Z,1.67
2022-12-28T06:23:59.951Z,1.90
2022-12-28T06:26:29.479Z,1.80
2022-12-28T06:28:56.312Z,1.77
2022-12-28T06:31:24.935Z,1.92
2022-12-28T06:33:54.006Z,2.17
2022-12-28T06:36:22.000Z,1.80
2022-12-28T06:38:49.344Z,2.22
2022-12-28T06:41:16.523Z,1.88
2022-12-28T06:43:43.487Z,2.42
2022-12-28T06:46:10.910Z,1.58
2022-12-28T06:48:37.709Z,2.85
2022-12-28T06:51:06.278Z,2.85
2022-12-28T06:53:34.885Z,2.20
2022-12-28T06:56:03.543Z,1.92
2022-12-28T06:58:30.518Z,1.70
2022-12-28T07:00:57.975Z,2.30
2022-12-28T07:03:24.904Z,1.75
2022-12-28T07:05:51.520Z,1.95
2022-12-28T07:08:18.466Z,2.28
2022-12-28T07:10:45.157Z,2.03
2022-12-28T07:13:11.810Z,2.20
2022-12-28T07:15:38.484Z,1.90
2022-12-28T07:18:05.152Z,2.33
2022-12-28T07:20:37.042Z,1.67
2022-12-28T07:23:06.705Z,1.75
2022-12-28T07:25:33.371Z,1.90
2022-12-28T07:28:00.124Z,1.77
2022-12-28T07:30:26.791Z,1.85
2022-12-28T07:32:53.433Z,1.90
2022-12-28T07:35:20.061Z,2.13
2022-12-28T07:37:46.661Z,2.22
2022-12-28T07:40:13.371Z,1.95
2022-12-28T07:42:39.994Z,1.90
2022-12-28T07:45:10.714Z,2.33
2022-12-28T07:47:37.271Z,1.60
2022-12-28T07:50:04.844Z,2.72
2022-12-28T07:52:31.406Z,3.35
2022-12-28T07:54:58.013Z,2.00
2022-12-28T07:57:24.692Z,2.00
2022-12-28T07:59:51.317Z,2.10
2022-12-28T08:02:18.102Z,2.00
2022-12-28T08:04:48.831Z,2.10
2022-12-28T08:07:18.682Z,2.88
2022-12-28T08:09:45.260Z,1.80
2022-12-28T08:12:11.832Z,2.13
2022-12-28T08:14:38.449Z,1.70
2022-12-28T08:17:05.075Z,1.85
2022-12-28T08:19:31.690Z,2.10
2022-12-28T08:21:58.392Z,2.10
2022-12-28T08:24:25.018Z,2.00
2022-12-28T08:26:51.670Z,2.10
2022-12-28T08:29:20.671Z,1.90
2022-12-28T08:31:47.612Z,1.70
2022-12-28T08:34:19.207Z,2.05
2022-12-28T08:36:46.071Z,1.83
2022-12-28T08:39:12.693Z,1.80
2022-12-28T08:41:39.289Z,1.73
2022-12-28T08:44:06.175Z,1.98
2022-12-28T08:46:34.450Z,1.85
2022-12-28T08:49:01.419Z,1.88
2022-12-28T08:51:43.076Z,1.52
2022-12-28T08:54:10.822Z,1.98
2022-12-28T08:56:38.415Z,1.45
2022-12-28T08:59:05.470Z,2.08
2022-12-28T09:01:38.953Z,2.13
2022-12-28T09:04:13.540Z,1.88
2022-12-28T09:06:40.397Z,2.20
2022-12-28T09:09:08.566Z,2.15
2022-12-28T09:11:35.797Z,1.90
2022-12-28T09:14:03.308Z,2.13
2022-12-28T09:16:30.099Z,2.17
2022-12-28T09:18:58.394Z,2.20
2022-12-28T09:21:26.632Z,3.25
2022-12-28T09:23:54.127Z,2.85
2022-12-28T09:26:22.833Z,3.13
2022-12-28T09:28:51.327Z,2.80
2022-12-28T09:31:18.374Z,3.20
2022-12-28T09:36:54.438Z,4.00
2022-12-28T09:39:24.377Z,4.10
2022-12-28T09:41:57.901Z,4.07
2022-12-28T09:44:46.915Z,3.88
2022-12-28T09:47:22.383Z,4.13
2022-12-28T09:49:59.095Z,4.25
2022-12-28T09:52:36.716Z,4.32
2022-12-28T09:55:07.269Z,4.03
2022-12-28T09:57:37.256Z,3.97
2022-12-28T10:00:05.420Z,4.43
2022-12-28T10:02:33.614Z,3.83
2022-12-28T10:05:00.303Z,3.33
2022-12-28T10:07:26.865Z,3.45
2022-12-28T10:09:53.617Z,3.47
2022-12-28T10:12:21.750Z,3.47
2022-12-28T10:14:49.113Z,3.58
2022-12-28T10:17:16.767Z,3.90
2022-12-28T10:19:46.409Z,3.20
2022-12-28T10:22:16.994Z,3.47
2022-12-28T10:24:43.705Z,3.42
2022-12-28T10:27:22.267Z,3.47
2022-12-28T10:29:51.817Z,3.28
2022-12-28T10:32:19.216Z,3.20
2022-12-28T10:35:01.642Z,3.13
2022-12-28T10:37:30.851Z,3.35
2022-12-28T10:40:03.540Z,3.10
2022-12-28T10:45:03.216Z,2.92
2022-12-28T10:47:31.418Z,3.17
2022-12-28T10:52:56.696Z,3.28
2022-12-28T10:55:31.236Z,3.13
2022-12-28T10:58:33.229Z,3.50
2022-12-28T11:01:04.010Z,3.03
2022-12-28T11:03:35.110Z,3.00
2022-12-28T11:06:11.260Z,3.60
2022-12-28T11:08:39.485Z,3.40
2022-12-28T11:11:06.981Z,3.00
2022-12-28T11:13:33.609Z,3.45
2022-12-28T11:16:00.238Z,2.78
2022-12-28T11:18:26.921Z,2.80
2022-12-28T11:20:53.997Z,2.90
2022-12-28T11:23:22.528Z,4.80
2022-12-28T11:25:49.255Z,3.85
2022-12-28T11:28:18.058Z,3.00
2022-12-28T11:30:45.378Z,3.58
2022-12-28T11:33:44.718Z,3.33
2022-12-28T11:36:16.226Z,3.10
2022-12-28T11:38:45.288Z,3.20
2022-12-28T11:41:34.293Z,3.90
2022-12-28T11:44:04.669Z,3.28
2022-12-28T11:49:30.582Z,3.35
2022-12-28T11:54:57.055Z,3.33
2022-12-28T11:57:41.006Z,3.90
2022-12-28T12:03:00.913Z,3.30
2022-12-28T12:08:25.783Z,3.10
2022-12-28T12:11:33.286Z,3.35
2022-12-28T12:14:00.330Z,3.00
2022-12-28T12:16:33.292Z,3.25
2022-12-28T12:19:00.379Z,2.90
2022-12-28T12:21:41.635Z,3.17
2022-12-28T12:27:15.123Z,3.00
2022-12-28T12:29:44.257Z,3.70
2022-12-28T12:32:17.552Z,3.00
2022-12-28T12:34:47.977Z,2.70
2022-12-28T12:37:37.990Z,3.17
2022-12-28T12:40:35.693Z,2.70
2022-12-28T12:43:33.200Z,2.60
2022-12-28T12:49:21.633Z,2.42
2022-12-28T12:55:02.524Z,4.25
2022-12-28T12:57:36.639Z,2.20
2022-12-28T13:00:16.933Z,2.53
2022-12-28T13:03:09.005Z,2.40
2022-12-28T13:05:37.300Z,2.00
2022-12-28T13:08:03.951Z,2.92
2022-12-28T13:10:40.394Z,2.60
2022-12-28T13:13:07.058Z,1.50
2022-12-28T13:15:33.764Z,1.23
2022-12-28T13:18:46.073Z,1.25
2022-12-28T13:21:08.880Z,1.92
2022-12-28T13:23:46.095Z,2.00
2022-12-28T13:26:13.175Z,1.52
2022-12-28T13:28:44.019Z,1.83
2022-12-28T13:34:05.254Z,1.30
2022-12-28T13:36:33.312Z,1.52
2022-12-28T13:39:07.004Z,1.90
2022-12-28T13:41:35.115Z,1.73
2022-12-28T13:44:41.741Z,1.30
2022-12-28T13:47:17.749Z,1.70
2022-12-28T13:49:49.546Z,1.73
2022-12-28T13:52:20.301Z,1.63
2022-12-28T13:54:49.580Z,1.60
2022-12-28T13:57:45.307Z,1.75
2022-12-28T14:00:03.125Z,1.60
2022-12-28T14:02:29.887Z,1.67
2022-12-28T14:04:57.386Z,2.58
2022-12-28T14:07:25.865Z,2.22
2022-12-28T14:09:52.796Z,2.60
2022-12-28T14:12:19.503Z,1.67
2022-12-28T14:14:46.214Z,1.40
2022-12-28T14:17:12.822Z,1.67
2022-12-28T14:19:39.402Z,2.20
2022-12-28T14:22:25.260Z,3.58
2022-12-28T14:25:16.014Z,1.80
2022-12-28T14:27:44.780Z,1.92
2022-12-28T14:30:29.722Z,2.20
2022-12-28T14:32:56.423Z,2.28
2022-12-28T14:35:25.269Z,2.15
2022-12-28T14:37:55.546Z,1.92
2022-12-28T14:40:27.000Z,2.13
2022-12-28T14:42:53.831Z,1.88
2022-12-28T14:45:23.944Z,1.73
2022-12-28T14:47:54.894Z,1.77
2022-12-28T14:50:24.568Z,1.40
2022-12-28T14:53:00.540Z,1.92
2022-12-28T14:55:31.251Z,1.67
2022-12-28T14:58:00.207Z,1.98
2022-12-28T15:00:29.093Z,1.80
2022-12-28T15:02:56.179Z,1.73
2022-12-28T15:05:40.325Z,1.75
2022-12-28T15:08:07.215Z,1.70
2022-12-28T15:10:36.220Z,1.75
2022-12-28T15:13:02.865Z,1.73
2022-12-28T15:15:29.524Z,2.08
2022-12-28T15:17:56.337Z,1.98
2022-12-28T15:20:23.212Z,2.40
2022-12-28T15:22:49.875Z,1.73
2022-12-28T15:25:16.495Z,2.65
2022-12-28T15:27:43.120Z,2.13
2022-12-28T15:30:16.281Z,2.53
2022-12-28T15:32:46.341Z,2.33
2022-12-28T15:35:13.065Z,2.33
2022-12-28T15:37:39.698Z,2.60
2022-12-28T15:40:07.123Z,2.83
2022-12-28T15:42:40.097Z,2.60
2022-12-28T15:45:08.968Z,3.10
2022-12-28T15:47:35.874Z,2.80
2022-12-28T15:50:03.625Z,2.72
2022-12-28T15:52:31.284Z,2.60
2022-12-28T15:54:58.247Z,2.60
2022-12-28T15:57:25.336Z,2.38
2022-12-28T15:59:52.805Z,2.33
2022-12-28T16:02:20.054Z,2.40
2022-12-28T16:04:46.764Z,3.10
2022-12-28T16:07:13.611Z,3.40
2022-12-28T16:09:40.274Z,2.63
2022-12-28T16:12:06.993Z,2.40
2022-12-28T16:14:33.692Z,2.30
2022-12-28T16:17:00.389Z,2.85
2022-12-28T16:19:26.986Z,3.30
2022-12-28T16:21:56.988Z,2.70
2022-12-28T16:24:23.666Z,2.47
2022-12-28T16:26:50.357Z,2.50
2022-12-28T16:29:17.009Z,3.47
2022-12-28T16:31:43.704Z,3.22
2022-12-28T16:34:13.679Z,3.15
2022-12-28T16:36:40.446Z,2.78
2022-12-28T16:39:08.580Z,2.83
2022-12-28T16:41:37.322Z,2.40
2022-12-28T16:44:06.476Z,3.08
2022-12-28T16:46:33.251Z,2.90
2022-12-28T16:49:01.184Z,3.00
2022-12-28T16:51:28.785Z,2.83
2022-12-28T16:53:55.410Z,3.42
2022-12-28T16:56:22.221Z,3.50
2022-12-28T16:58:49.577Z,3.30
2022-12-28T17:01:16.572Z,3.05
2022-12-28T17:03:43.305Z,2.70
2022-12-28T17:06:10.166Z,3.08
2022-12-28T17:08:36.836Z,3.40
2022-12-28T17:11:07.540Z,3.70
2022-12-28T17:13:34.231Z,3.33
2022-12-28T17:16:01.119Z,3.85
2022-12-28T17:18:27.973Z,4.63
2022-12-28T17:20:54.804Z,5.00
2022-12-28T17:23:21.467Z,5.18
2022-12-28T17:25:50.902Z,4.90
2022-12-28T17:28:17.546Z,4.90
2022-12-28T17:30:44.391Z,4.30
2022-12-28T17:33:11.542Z,4.38
2022-12-28T17:35:38.218Z,4.03
2022-12-28T17:38:04.824Z,4.63
2022-12-28T17:40:31.409Z,3.90
2022-12-28T17:42:57.988Z,4.10
2022-12-28T17:45:24.608Z,3.60
2022-12-28T17:47:51.423Z,4.55
2022-12-28T17:50:19.626Z,5.13
2022-12-28T17:52:46.391Z,5.95
2022-12-28T17:55:13.002Z,4.82
2022-12-28T17:57:39.660Z,5.53
2022-12-28T18:00:06.792Z,4.93
2022-12-28T18:02:33.769Z,4.68
2022-12-28T18:05:00.546Z,4.20
2022-12-28T18:07:27.511Z,4.28
2022-12-28T18:09:54.223Z,5.13
2022-12-28T18:12:20.813Z,4.90
2022-12-28T18:14:47.441Z,4.47
2022-12-28T18:17:16.602Z,5.30
2022-12-28T18:19:43.539Z,5.85
2022-12-28T18:22:10.098Z,6.10
2022-12-28T18:24:36.802Z,4.93
2022-12-28T18:27:03.433Z,5.07
2022-12-28T18:29:30.074Z,4.68
2022-12-28T18:31:56.682Z,5.38
2022-12-28T18:34:23.329Z,4.68
2022-12-28T18:36:50.044Z,5.32
2022-12-28T18:39:16.633Z,5.65
2022-12-28T18:41:43.291Z,5.25
2022-12-28T18:44:10.295Z,5.18
2022-12-28T18:46:37.113Z,5.15
2022-12-28T18:49:03.836Z,5.15
2022-12-28T18:51:30.465Z,4.72
2022-12-28T18:53:57.199Z,5.15
2022-12-28T18:56:23.784Z,5.35
2022-12-28T18:58:52.778Z,5.25
2022-12-28T19:04:10.001Z,5.53
2022-12-28T19:06:37.112Z,6.10
2022-12-28T19:09:04.393Z,5.38
2022-12-28T19:11:31.106Z,5.70
2022-12-28T19:13:57.707Z,5.35
2022-12-28T19:16:30.577Z,4.72
2022-12-28T19:18:57.972Z,5.63
2022-12-28T19:21:40.659Z,5.03
2022-12-28T19:24:13.641Z,5.55
2022-12-28T19:26:40.397Z,5.10
2022-12-28T19:29:07.155Z,5.70
2022-12-28T19:31:33.922Z,5.60
2022-12-28T19:34:00.686Z,5.45
2022-12-28T19:36:27.381Z,6.40
2022-12-28T19:38:55.072Z,6.05
2022-12-28T19:41:21.865Z,4.82
2022-12-28T19:43:48.471Z,5.15
2022-12-28T19:46:19.871Z,4.43
2022-12-28T19:48:46.489Z,5.28
2022-12-28T19:51:13.456Z,4.40
2022-12-28T19:53:40.266Z,4.28
2022-12-28T19:56:16.844Z,4.93
2022-12-28T19:58:44.348Z,4.50
2022-12-28T20:01:15.228Z,4.50
2022-12-28T20:03:42.171Z,5.70
2022-12-28T20:06:10.681Z,4.22
2022-12-28T20:08:37.567Z,4.50
2022-12-28T20:11:04.572Z,5.72
2022-12-28T20:13:31.868Z,4.65
2022-12-28T20:15:58.576Z,4.47
2022-12-28T20:18:25.258Z,5.30
2022-12-28T20:21:18.746Z,4.22
2022-12-28T20:23:38.860Z,4.22
2022-12-28T20:26:05.613Z,4.90
2022-12-28T20:28:32.725Z,5.15
2022-12-28T20:31:01.120Z,4.18
2022-12-28T20:33:27.803Z,4.10
2022-12-28T20:35:57.534Z,4.32
2022-12-28T20:38:24.264Z,3.95
2022-12-28T20:41:05.628Z,4.10
2022-12-28T20:43:32.769Z,4.45
2022-12-28T20:45:59.509Z,5.38
2022-12-28T20:48:26.384Z,5.85
2022-12-28T20:50:57.259Z,5.20
2022-12-28T20:53:23.969Z,4.32
2022-12-28T20:55:51.379Z,5.18
2022-12-28T20:58:19.206Z,4.82
2022-12-28T21:00:45.943Z,3.75
2022-12-28T21:03:12.579Z,4.72
2022-12-28T21:05:39.183Z,3.88
2022-12-28T21:08:05.899Z,4.88
2022-12-28T21:10:32.460Z,4.45
2022-12-28T21:12:59.375Z,4.47
2022-12-28T21:15:26.018Z,4.18
2022-12-28T21:17:52.603Z,4.38
2022-12-28T21:20:19.247Z,4.32
2022-12-28T21:22:45.841Z,4.03
2022-12-28T21:25:12.433Z,4.53
2022-12-28T21:27:39.055Z,4.72
2022-12-28T21:30:06.374Z,4.93
2022-12-28T21:32:33.052Z,5.15
2022-12-28T21:34:59.661Z,4.63
2022-12-28T21:37:41.539Z,4.13
2022-12-28T21:40:09.148Z,4.50
2022-12-28T21:42:36.332Z,4.45
2022-12-28T21:45:03.560Z,4.18
2022-12-28T21:47:30.205Z,4.13
2022-12-28T21:49:56.811Z,3.67
2022-12-28T21:52:23.409Z,3.88
2022-12-28T21:54:50.151Z,3.97
2022-12-28T21:57:16.787Z,3.60
2022-12-28T21:59:43.438Z,3.80
2022-12-28T22:02:35.873Z,4.25
2022-12-28T22:05:23.188Z,4.07
2022-12-28T22:08:10.118Z,3.65
2022-12-28T22:10:56.837Z,4.07
2022-12-28T22:13:23.472Z,3.33
2022-12-28T22:15:51.117Z,3.55
2022-12-28T22:18:37.141Z,3.53
2022-12-28T22:21:06.956Z,3.60
2022-12-28T22:23:34.983Z,3.78
2022-12-28T22:26:01.985Z,3.58
2022-12-28T22:28:28.649Z,3.03
2022-12-28T22:30:55.247Z,3.03
2022-12-28T22:33:21.915Z,3.65
2022-12-28T22:35:48.519Z,3.17
2022-12-28T22:38:15.200Z,4.93
2022-12-28T22:40:41.878Z,3.08
2022-12-28T22:43:08.471Z,2.83
2022-12-28T22:45:35.119Z,3.42
2022-12-28T22:48:01.798Z,2.92
2022-12-28T22:50:28.888Z,2.38
2022-12-28T22:52:56.315Z,2.83
2022-12-28T22:55:23.094Z,2.63
2022-12-28T22:57:49.741Z,3.22
2022-12-28T23:00:18.015Z,2.85
2022-12-28T23:02:45.015Z,2.33
2022-12-28T23:05:11.760Z,2.65
2022-12-28T23:07:39.356Z,2.80
2022-12-28T23:10:07.568Z,2.33
2022-12-28T23:12:34.465Z,2.90
2022-12-28T23:15:16.268Z,2.30
2022-12-28T23:17:43.008Z,1.77
2022-12-28T23:20:30.646Z,2.53
2022-12-28T23:23:17.210Z,2.17
2022-12-28T23:26:03.784Z,2.20
2022-12-28T23:28:30.551Z,2.20
2022-12-28T23:30:57.326Z,2.30
2022-12-28T23:33:24.190Z,2.10
2022-12-28T23:35:50.882Z,2.33
2022-12-28T23:38:17.566Z,2.50
2022-12-28T23:40:44.472Z,2.42
2022-12-28T23:43:11.113Z,1.90
2022-12-28T23:45:37.884Z,2.42
2022-12-28T23:48:04.710Z,1.95
2022-12-28T23:50:31.394Z,1.98
2022-12-28T23:52:58.019Z,2.20
2022-12-28T23:55:24.673Z,2.00
2022-12-28T23:57:51.293Z,2.08
